Airfield :
LOGIN :

Register | Disclaimer

   EN    FR    IT 

 










Legend :    VFR   Marginal VFR   IFR   Intensive IFR   Very Intensive IFR
Visi :
Ceiling :
>= 8 km
>= 3000ft
5 to 8 km
1000 to 3000 ft
1500m to 5 km
500 to 1000 ft
800 to 1500m
200 to 500 ft
< 800m
< 200 ft
Symbols :   Thunderstorms  Fog  Heavy snow  Heavy precipitations  Wind > 20 kt
SIGMETs :     Misc.  Thunderstorms  Icing  Turbulence  Mountain Waves  Volcanic Ashes







- Airport Elevation : 55 ft
- IATA code : DSA
- Download approach charts


EGCN - Robin Hood Doncaster Sheffield

CURRENT METAR :
  • 260820Z 22011KT 8000 -RA SCT018 BKN023 17/15 Q1010

EXPIRED METARs :
  • 260750Z 23013KT 9999 -RA SCT020 BKN026 17/15 Q1010
  • 260720Z 23013KT 210V340 9999 -RA SCT020 BKN044 18/15 Q1010
  • 260650Z 23013KT 9999 FEW017 SCT022 17/15 Q1010
  • 260620Z 22015KT 9999 FEW022 SCT030 17/15 Q1010
  • 260550Z 22012KT 9999 FEW020 SCT039 BKN048 16/14 Q1011 RERA

TAF TAF EGCN
Valid from the 26 at 06:00 until the 27 at 06:00 UTC


260458Z 2606/2706 22009KT 9999 SCT020
TEMPO 2606/2612 8000 -RA BKN014
PROB30
TEMPO 2606/2610 3000 +RA BKN009
BECMG 2610/2613 28016G26KT
BECMG 2618/2621 26009KT
No reported NOTAMs for that airfield.



MET'MAP, your aeronautical weather chart ! - Copyright ORBIFLY December 2007 - Disclaimer

ORBIFLY MET'MAP TEAM :

Programming & Development : Alexandra Zaïnal
Concept & Development : Baudouin d'Aumeries
Co-Development & Prog : Marc-Olivier Méhu
Technical & hardware support : Manuel Goepfert

Contact : metmap@orbifly.com




SOURCES & CREDITS :

   NOAA